»·PEaware :: TEXAN15 KRND-KRND

TEXAN15 :: KRND-KRND

FLIGHT INFORMATION

Flight Status: Arrived
Operator: Unknown
More flights by this operator :: More flights under this callsign
Pilot: Indie I. (23336)
Aircraft: BEECH AIRCRAFT T-6A TEXAN
(TEX2)
More flights by this aircraft type
Origin: KRND Randolph AFB
United States
Destination: KRND Randolph AFB
United States
More flights between these airports :: More routes between these airports
Route: PATTERNS
File this flight plan on PilotEdge
Remarks: +CW / na
Altitude:
(Current/Filed)
1,800ft
Speed:
(Current/Filed)
227kts
Departed: 05-Mar-20 12:14 PM
Arrived: 05-Mar-20 12:53 PM
Distance/Time
Traveled:
3nm/0:38
Distance/Time
To Go:
Arrived

Flight Plot

Page will automatically refresh every two minutes.

Flight plan parsing failed; only flown route is shown


Map Options




Map Legend


Flown Route
Filed Route
Departure Airport
Arrival Airport
Navaid (VOR, NDB)
Fix

Horizontal Profiles

Position Reports

Time Latitude Longitude Heading Altitude Ground
Speed
05-Mar-20 12:10 29.516126 -98.278769 147 765ft 0kts
05-Mar-20 12:11 29.515533 -98.278936 248 765ft 0kts
05-Mar-20 12:12 29.515351 -98.280244 303 765ft 4kts
05-Mar-20 12:13 29.535832 -98.293888 327 1152ft 164kts
05-Mar-20 12:14 29.516041 -98.324941 149 1891ft 201kts
05-Mar-20 12:15 29.468954 -98.290141 77 1783ft 204kts
05-Mar-20 12:16 29.507121 -98.274662 330 1859ft 205kts
05-Mar-20 12:17 29.531210 -98.308792 155 1807ft 172kts
05-Mar-20 12:18 29.501081 -98.282669 88 1632ft 134kts
05-Mar-20 12:19 29.532422 -98.291467 331 1096ft 168kts
05-Mar-20 12:20 29.522100 -98.332440 145 1889ft 203kts
05-Mar-20 12:21 29.472937 -98.298149 150 1867ft 206kts
05-Mar-20 12:22 29.447785 -98.260754 57 1394ft 143kts
05-Mar-20 12:23 29.481385 -98.257785 331 1365ft 132kts
05-Mar-20 12:24 29.512263 -98.278255 330 853ft 116kts
05-Mar-20 12:25 29.543041 -98.298156 324 1478ft 196kts
05-Mar-20 12:26 29.510820 -98.321519 150 1823ft 208kts
05-Mar-20 12:27 29.472924 -98.281848 69 1904ft 201kts
05-Mar-20 12:28 29.515493 -98.280390 330 1860ft 207kts
05-Mar-20 12:29 29.501399 -98.285363 93 1784ft 130kts
05-Mar-20 12:30 29.529781 -98.289700 331 1096ft 156kts
05-Mar-20 12:31 29.526637 -98.334574 161 1866ft 214kts
05-Mar-20 12:32 29.476462 -98.299382 149 1907ft 206kts
05-Mar-20 12:33 29.497216 -98.268638 331 1852ft 199kts
05-Mar-20 12:34 29.511218 -98.294871 154 1763ft 133kts
05-Mar-20 12:35 29.517623 -98.281888 330 769ft 107kts
05-Mar-20 12:36 29.542463 -98.314372 236 1554ft 220kts
05-Mar-20 12:37 29.495751 -98.312240 150 1866ft 209kts
05-Mar-20 12:38 29.479233 -98.265179 31 1734ft 206kts
05-Mar-20 12:39 29.525104 -98.291316 272 1866ft 191kts
05-Mar-20 12:40 29.500368 -98.277995 47 1290ft 129kts
05-Mar-20 12:41 29.531513 -98.290814 330 1168ft 169kts
05-Mar-20 12:42 29.521343 -98.328707 150 1796ft 206kts
05-Mar-20 12:43 29.470920 -98.295987 137 1803ft 214kts
05-Mar-20 12:44 29.503329 -98.272394 336 2917ft 165kts
05-Mar-20 12:45 29.510305 -98.294305 143 2159ft 136kts
05-Mar-20 12:46 29.521430 -98.284327 330 766ft 81kts
05-Mar-20 12:47 29.539594 -98.321677 242 1926ft 214kts
05-Mar-20 12:48 29.491866 -98.308969 152 1893ft 208kts
05-Mar-20 12:49 29.483629 -98.262866 23 1892ft 202kts
05-Mar-20 12:50 29.521926 -98.297546 215 1861ft 167kts
05-Mar-20 12:51 29.507603 -98.276251 356 1062ft 136kts
05-Mar-20 12:52 29.526496 -98.286929 49 765ft 7kts
05-Mar-20 12:53 29.526764 -98.286483 62 765ft 0kts
05-Mar-20 12:54 29.526764 -98.286483 62 765ft 0kts
05-Mar-20 12:55 29.526764 -98.286483 62 765ft 0kts
05-Mar-20 12:56 29.526764 -98.286483 62 765ft 0kts
05-Mar-20 12:57 29.526764 -98.286482 62 765ft 0kts
05-Mar-20 12:58 29.524059 -98.283952 143 765ft 41kts
05-Mar-20 12:59 29.519919 -98.281151 147 765ft 25kts
05-Mar-20 13:00 29.516000 -98.278589 147 766ft 0kts
05-Mar-20 13:01 29.515981 -98.278578 157 765ft 5kts
05-Mar-20 13:02 29.515470 -98.279397 245 765ft 0kts
05-Mar-20 13:03 29.516143 -98.280812 331 765ft 46kts
05-Mar-20 13:04 29.543822 -98.307001 239 1306ft 206kts
05-Mar-20 13:05 29.502198 -98.315850 151 1846ft 203kts
05-Mar-20 13:06 29.473358 -98.275035 68 1852ft 199kts

Navigation Log

Ident Type
Flight plan parsing failed, navigation log unavailable